Jump to content


UNITED AIRLINES FLIGHT UA33 FLOWN ON 08-26-2017 BY CAPTAIN JIM BOERMAN

Pilot StatsCaptain Jim Boerman (LDP136) • 4,578.9 total hours • 1,395 total flights [View Logbook]
FLIGHT DETAILS
StatusReceived and approved on 2017-08-25 at 19:08:27
Origin AirportNarita Intl (RJAA) • Tokyo, Japan (135 feet MSL)
Filed Flight PlanRJAA INUBO Y51 KAGIS A590 POETT J120 BET J501 SQA J179 MDO J804R FRIED TR19 YZP J523 TOU J501 OED J1 HANDY J126 RBL J3 OAK J1 DERBB J7 REYES J1 FIM KLAX
Destination AirportLos Angeles Intl (KLAX) • Los Angeles, California, United States (126 feet MSL)
Alternate AirportOntario Intl (KONT) • Ontario, California, United States (944 feet MSL)
AirlineUnited Airlines
AircraftBoeing 777-200LR (77L / B777-200LR)
FS Aircraft UsedPMDG 777-222LR United Airlines (Merger - Fictional)
Cruising AltitudeFL350
Distance Flown4,727 nautical miles
Passengers Onboard201 passengers (66.78% full)
DEPARTURE DETAILS
Time Out23:00:15
Taxi Data510,586 lbs total with 159,262 lbs of fuel onboard
Takeoff Data23:13:03 (13 minutes after leaving gate/ramp) • 508,886 lbs total • 9° pitch at 171 knots
Departure METARRJAA 251230Z 19002KT CAVOK 27/25 Q1006 NOSIG RMK A2971
ARRIVAL DETAILS
Landing Data16:48:54 • 380,195 lbs total • 3° pitch doing 128 knots at a rate of -128.41 feet/minute with 27,502 lbs of fuel onboard
Time In17:06:31 (18 minutes after landing)
Ramp Weight378,826 lbs total
Total Fuel Used131,760 lbs
Total Block Time09:49:08 (9.8 hours) while 30 minutes were spent on the ground
Arrival METARKLAX 252353Z 26010KT 10SM SCT013 BKN038 22/18 A2981 RMK AO2 SLP092 T02170178 10233 20211 56006
MISCELLANEOUS DETAILS
LiveDISPATCH Version4.8.3.1
FS Version
FSUIPC Version4.93
OS VersionWindows 7 32-bit
Screen Resolution1920 x 1080
Pilot's CommentsNo Comments Reported
FLIGHT MAP